Time;durP1;ratioP1;P1;durP2;ratioP2;P2;SDS_P1;SDS_P2;PMS_P1;PMS_P2;Temp;Humidity;BMP_temperature;BMP_pressure;BME280_temperature;BME280_humidity;BME280_pressure;Samples;Min_cycle;Max_cycle;Signal;HPM_P1;HPM_P2
2024/01/17 00:02:08;;;;;;;5.40;2.50;;;1.20;99.90;;;;;;4996163;28;20726;-73
2024/01/17 00:04:34;;;;;;;3.03;2.40;;;1.20;99.90;;;;;;5020296;28;20519;-73
2024/01/17 00:06:59;;;;;;;2.60;2.00;;;1.20;99.90;;;;;;4999078;28;20050;-73
2024/01/17 00:09:25;;;;;;;1.13;1.03;;;1.30;99.90;;;;;;4995943;28;20049;-73
2024/01/17 00:11:51;;;;;;;2.90;2.57;;;1.20;99.90;;;;;;5002632;28;20072;-74
2024/01/17 00:14:17;;;;;;;4.13;1.67;;;1.20;99.90;;;;;;5002742;28;20042;-73
2024/01/17 00:16:42;;;;;;;3.40;1.57;;;1.30;99.90;;;;;;4999721;28;20042;-73
2024/01/17 00:19:08;;;;;;;2.83;2.13;;;1.30;99.90;;;;;;4996631;28;20531;-73
2024/01/17 00:21:33;;;;;;;2.20;2.00;;;1.30;99.90;;;;;;5001284;28;20046;-74
2024/01/17 00:23:59;;;;;;;2.17;1.80;;;1.30;99.90;;;;;;5000495;28;20054;-73
2024/01/17 00:26:24;;;;;;;6.10;2.80;;;1.30;99.90;;;;;;4997159;28;20488;-73
2024/01/17 00:28:50;;;;;;;1.53;1.43;;;1.30;99.90;;;;;;5033946;28;20112;-74
2024/01/17 00:31:16;;;;;;;2.57;1.63;;;1.20;99.90;;;;;;5021921;28;20610;-73
2024/01/17 00:33:41;;;;;;;1.50;1.40;;;1.30;99.90;;;;;;5020463;28;20574;-73
2024/01/17 00:36:08;;;;;;;5.70;2.63;;;1.30;99.90;;;;;;5025981;28;20444;-73
2024/01/17 00:38:34;;;;;;;1.40;1.30;;;1.30;99.90;;;;;;5019002;28;20042;-73
2024/01/17 00:41:00;;;;;;;4.63;2.70;;;1.30;99.90;;;;;;4985838;28;20061;-73
2024/01/17 00:43:26;;;;;;;2.00;1.90;;;1.30;99.90;;;;;;5012212;28;20041;-73
2024/01/17 00:45:51;;;;;;;3.00;1.77;;;1.30;99.90;;;;;;5032452;28;20049;-73
2024/01/17 00:48:18;;;;;;;2.40;2.30;;;1.30;99.90;;;;;;5027424;28;20052;-73
2024/01/17 00:50:44;;;;;;;1.80;1.67;;;1.30;99.90;;;;;;5026804;28;20037;-73
2024/01/17 00:53:09;;;;;;;3.20;3.00;;;1.20;99.90;;;;;;5005663;28;20080;-73
2024/01/17 00:55:35;;;;;;;2.30;1.73;;;1.30;99.90;;;;;;4991483;28;20089;-73
2024/01/17 00:58:00;;;;;;;4.20;3.27;;;1.20;99.90;;;;;;5023793;28;20049;-73
2024/01/17 01:00:26;;;;;;;3.15;2.95;;;1.30;99.90;;;;;;5017053;28;20034;-73
2024/01/17 01:02:52;;;;;;;2.88;2.58;;;1.30;99.90;;;;;;5004347;28;20388;-73
2024/01/17 01:05:17;;;;;;;6.50;2.87;;;1.30;99.90;;;;;;5005034;28;20112;-73
2024/01/17 01:07:44;;;;;;;3.50;3.20;;;1.30;99.90;;;;;;4985256;28;20046;-73
2024/01/17 01:10:09;;;;;;;1.60;1.50;;;1.20;99.90;;;;;;4983743;28;20117;-73
2024/01/17 01:12:35;;;;;;;2.23;2.03;;;1.20;99.90;;;;;;4984837;28;20128;-73
2024/01/17 01:15:01;;;;;;;2.83;2.63;;;1.20;99.90;;;;;;4985719;28;20034;-73
2024/01/17 01:17:27;;;;;;;3.20;2.10;;;1.30;99.90;;;;;;5027797;28;20085;-73
2024/01/17 01:19:55;;;;;;;6.03;3.47;;;1.20;99.90;;;;;;5026060;28;20038;-73
2024/01/17 01:22:21;;;;;;;2.07;1.97;;;1.20;99.90;;;;;;4988941;28;20050;-74
2024/01/17 01:24:46;;;;;;;8.40;3.73;;;1.20;99.90;;;;;;5007186;28;20057;-73
2024/01/17 01:27:12;;;;;;;1.87;1.77;;;1.20;99.90;;;;;;5040287;28;20569;-73
2024/01/17 01:29:38;;;;;;;3.87;2.90;;;1.20;99.90;;;;;;5023785;28;20041;-73
2024/01/17 01:32:03;;;;;;;9.43;2.87;;;1.20;99.90;;;;;;5023712;28;20041;-73
2024/01/17 01:34:29;;;;;;;3.83;1.60;;;1.20;99.90;;;;;;5016493;28;20049;-73
2024/01/17 01:36:54;;;;;;;3.50;3.30;;;1.20;99.90;;;;;;5003845;28;20571;-74
2024/01/17 01:39:20;;;;;;;2.73;2.50;;;1.20;99.90;;;;;;4996048;28;20045;-74
2024/01/17 01:41:45;;;;;;;3.37;3.17;;;1.20;99.90;;;;;;5025117;28;20064;-73
2024/01/17 01:44:11;;;;;;;1.50;1.40;;;1.20;99.90;;;;;;5024894;28;20168;-73
2024/01/17 01:46:38;;;;;;;3.13;2.83;;;1.20;99.90;;;;;;5039907;28;20711;-73
2024/01/17 01:49:04;;;;;;;3.70;2.80;;;1.20;99.90;;;;;;5012905;28;20041;-73
2024/01/17 01:51:29;;;;;;;8.80;2.30;;;1.20;99.90;;;;;;5005949;28;20073;-73
2024/01/17 01:54:01;;;;;;;2.13;1.93;;;1.20;99.90;;;;;;5009502;28;20561;-73
2024/01/17 01:56:31;;;;;;;6.88;2.97;;;1.20;99.90;;;;;;5039942;28;20045;-73
2024/01/17 01:58:58;;;;;;;3.53;3.23;;;1.20;99.90;;;;;;5037581;28;20037;-73
2024/01/17 02:01:25;;;;;;;6.07;2.13;;;1.20;99.90;;;;;;5039083;28;20468;-73
2024/01/17 02:03:53;;;;;;;2.30;2.20;;;1.20;99.90;;;;;;5009934;28;20050;-74
2024/01/17 02:06:20;;;;;;;2.50;2.30;;;1.20;99.90;;;;;;5085095;22;20427;-73
2024/01/17 02:08:46;;;;;;;11.43;3.00;;;1.20;99.90;;;;;;5001585;28;20053;-73
2024/01/17 02:11:13;;;;;;;3.33;2.47;;;1.20;99.90;;;;;;5005291;28;20068;-73
2024/01/17 02:13:40;;;;;;;8.60;3.10;;;1.20;99.90;;;;;;5023034;28;20041;-73
2024/01/17 02:16:06;;;;;;;2.43;2.00;;;1.20;99.90;;;;;;5022080;28;20073;-73
2024/01/17 02:18:31;;;;;;;2.50;2.40;;;1.20;99.90;;;;;;5004845;28;20132;-73
2024/01/17 02:20:57;;;;;;;2.37;1.93;;;1.20;99.90;;;;;;5022764;28;20034;-73
2024/01/17 02:23:27;;;;;;;4.17;2.50;;;1.20;99.90;;;;;;5004389;28;20068;-73
2024/01/17 02:25:57;;;;;;;3.27;2.97;;;1.20;99.90;;;;;;5021978;28;20049;-74
2024/01/17 02:28:27;;;;;;;2.27;2.17;;;1.20;99.90;;;;;;5018977;28;20161;-73
2024/01/17 02:30:53;;;;;;;4.73;4.43;;;1.10;99.90;;;;;;5005305;28;20049;-74
2024/01/17 02:33:19;;;;;;;3.20;2.47;;;1.10;99.90;;;;;;5005625;28;20049;-73
2024/01/17 02:35:45;;;;;;;3.80;3.37;;;1.10;99.90;;;;;;5022803;28;20041;-73
2024/01/17 02:38:10;;;;;;;2.13;2.03;;;1.10;99.90;;;;;;5004540;28;20514;-73
2024/01/17 02:40:36;;;;;;;1.97;1.50;;;1.10;99.90;;;;;;5004404;28;20060;-73
2024/01/17 02:43:02;;;;;;;4.60;3.03;;;1.10;99.90;;;;;;5004559;28;20057;-73
2024/01/17 02:45:27;;;;;;;3.17;1.90;;;1.10;99.90;;;;;;5022404;28;20041;-73
2024/01/17 02:47:53;;;;;;;2.53;2.40;;;1.10;99.90;;;;;;4988396;28;20041;-74
2024/01/17 02:50:18;;;;;;;6.17;4.00;;;1.10;99.90;;;;;;5023125;28;20511;-73
2024/01/17 02:52:44;;;;;;;4.60;2.43;;;1.00;99.90;;;;;;5021726;28;20049;-73
2024/01/17 02:55:11;;;;;;;6.37;3.70;;;1.10;99.90;;;;;;5003525;28;20526;-73
2024/01/17 02:57:37;;;;;;;3.33;2.40;;;1.00;99.90;;;;;;5005037;28;20546;-73
2024/01/17 03:00:04;;;;;;;7.07;4.53;;;1.00;99.90;;;;;;5021953;28;20412;-73
2024/01/17 03:02:29;;;;;;;3.03;2.73;;;1.00;99.90;;;;;;5004851;28;20048;-73
2024/01/17 03:04:55;;;;;;;2.97;2.70;;;1.00;99.90;;;;;;5021002;28;20041;-73
2024/01/17 03:07:20;;;;;;;3.88;3.15;;;1.00;99.90;;;;;;4985950;28;1058350;-74
2024/01/17 03:09:46;;;;;;;5.83;2.70;;;1.00;99.90;;;;;;5019516;28;20531;-73
2024/01/17 03:12:12;;;;;;;5.43;5.00;;;1.00;99.90;;;;;;5004475;28;20274;-73
2024/01/17 03:14:37;;;;;;;5.50;4.90;;;1.00;99.90;;;;;;5001886;28;20564;-73
2024/01/17 03:17:03;;;;;;;5.30;3.93;;;1.00;99.90;;;;;;5022173;28;20483;-73
2024/01/17 03:19:28;;;;;;;2.33;2.20;;;1.00;99.90;;;;;;5023107;28;20076;-73
2024/01/17 03:21:54;;;;;;;4.23;3.47;;;1.00;99.90;;;;;;5004898;28;20091;-73
2024/01/17 03:24:20;;;;;;;2.97;2.87;;;1.00;99.90;;;;;;5020467;28;20041;-73
2024/01/17 03:26:46;;;;;;;4.70;4.30;;;1.00;99.90;;;;;;5020287;28;20044;-73
2024/01/17 03:29:11;;;;;;;4.27;2.67;;;1.00;99.90;;;;;;5004932;28;20041;-73
2024/01/17 03:31:37;;;;;;;6.40;5.17;;;1.00;99.90;;;;;;5005253;28;20057;-73
2024/01/17 03:34:03;;;;;;;2.57;2.37;;;1.00;99.90;;;;;;5004365;28;20041;-73
2024/01/17 03:36:29;;;;;;;9.87;4.27;;;1.00;99.90;;;;;;5003184;28;20033;-73
2024/01/17 03:38:55;;;;;;;4.07;3.67;;;1.00;99.90;;;;;;5003871;28;20041;-73
2024/01/17 03:41:21;;;;;;;5.77;3.97;;;1.00;99.90;;;;;;5005171;28;20049;-73
2024/01/17 03:43:47;;;;;;;3.47;2.93;;;1.00;99.90;;;;;;5023108;28;20064;-73
2024/01/17 03:46:12;;;;;;;4.57;4.17;;;1.00;99.90;;;;;;5004529;28;20057;-73
2024/01/17 03:48:38;;;;;;;3.03;2.83;;;1.00;99.90;;;;;;5005054;28;20493;-73
2024/01/17 03:51:05;;;;;;;3.03;2.83;;;1.00;99.90;;;;;;5021753;28;20037;-73
2024/01/17 03:53:30;;;;;;;4.27;3.20;;;1.00;99.90;;;;;;5004093;28;20116;-73
2024/01/17 03:55:56;;;;;;;2.40;2.20;;;0.90;99.90;;;;;;5022205;28;20136;-73
2024/01/17 03:58:21;;;;;;;8.83;3.13;;;1.00;99.90;;;;;;5004962;28;20049;-74
2024/01/17 04:00:47;;;;;;;8.87;5.23;;;1.00;99.90;;;;;;5022387;28;20049;-73
2024/01/17 04:03:13;;;;;;;3.73;3.53;;;1.00;99.90;;;;;;5004670;28;20068;-73
2024/01/17 04:05:40;;;;;;;4.73;4.30;;;0.90;99.90;;;;;;5022626;28;20052;-73
2024/01/17 04:08:06;;;;;;;3.00;2.63;;;0.90;99.90;;;;;;5003325;28;20065;-73
2024/01/17 04:10:32;;;;;;;4.67;3.90;;;1.00;99.90;;;;;;5022072;28;20601;-73
2024/01/17 04:12:58;;;;;;;5.63;4.07;;;0.90;99.90;;;;;;5001791;28;20033;-73
2024/01/17 04:15:24;;;;;;;5.67;4.10;;;0.90;99.90;;;;;;5005246;28;20445;-73
2024/01/17 04:17:49;;;;;;;4.30;3.57;;;1.00;99.90;;;;;;5022318;28;20490;-74
2024/01/17 04:20:15;;;;;;;2.90;2.70;;;1.00;99.90;;;;;;5022271;28;20127;-73
2024/01/17 04:22:41;;;;;;;3.90;3.60;;;1.00;99.90;;;;;;5022242;28;20132;-73
2024/01/17 04:25:07;;;;;;;3.23;3.03;;;1.00;99.90;;;;;;5025208;28;20052;-73
2024/01/17 04:27:32;;;;;;;6.07;3.80;;;1.00;99.90;;;;;;5008582;28;20057;-73
2024/01/17 04:29:58;;;;;;;9.23;5.67;;;1.00;99.90;;;;;;5025472;28;20522;-73
2024/01/17 04:32:26;;;;;;;4.83;4.43;;;1.00;99.90;;;;;;5008731;28;20049;-73
2024/01/17 04:34:51;;;;;;;4.00;3.30;;;1.00;99.90;;;;;;5025925;28;20050;-74
2024/01/17 04:37:17;;;;;;;11.03;4.00;;;1.00;99.90;;;;;;5025863;28;20128;-73
2024/01/17 04:39:43;;;;;;;3.17;2.97;;;1.00;99.90;;;;;;5024690;28;20156;-73
2024/01/17 04:42:08;;;;;;;4.60;4.30;;;1.00;99.90;;;;;;5025742;28;20045;-73
2024/01/17 04:44:34;;;;;;;3.30;3.10;;;1.10;99.90;;;;;;5008359;28;20056;-73
2024/01/17 04:47:00;;;;;;;4.87;4.47;;;1.10;99.90;;;;;;5006833;28;20539;-73
2024/01/17 04:49:27;;;;;;;3.00;2.80;;;1.00;99.90;;;;;;5007904;28;20049;-73
2024/01/17 04:51:54;;;;;;;4.17;3.87;;;1.00;99.90;;;;;;4991069;28;20133;-74
2024/01/17 04:54:22;;;;;;;7.20;3.77;;;1.00;99.90;;;;;;5007108;28;20049;-74
2024/01/17 04:56:47;;;;;;;4.53;3.93;;;1.00;99.90;;;;;;5025779;28;20052;-73
2024/01/17 04:59:13;;;;;;;4.07;3.57;;;1.00;99.90;;;;;;5007446;28;20049;-73
2024/01/17 05:01:38;;;;;;;3.20;3.00;;;1.00;99.90;;;;;;5009559;28;20049;-73
2024/01/17 05:04:04;;;;;;;4.50;4.10;;;1.00;99.90;;;;;;5006216;28;20113;-73
2024/01/17 05:06:30;;;;;;;3.87;3.57;;;0.90;99.90;;;;;;5007558;28;20053;-73
2024/01/17 05:08:56;;;;;;;4.57;4.20;;;0.90;99.90;;;;;;5023879;28;20113;-73
2024/01/17 05:11:22;;;;;;;5.53;3.53;;;1.00;99.90;;;;;;5025436;28;20237;-73
2024/01/17 05:13:48;;;;;;;3.23;3.03;;;0.90;99.90;;;;;;5008005;28;20080;-73
2024/01/17 05:16:14;;;;;;;5.50;5.00;;;0.90;99.90;;;;;;5007801;28;20057;-73
2024/01/17 05:18:40;;;;;;;4.90;4.07;;;0.90;99.90;;;;;;5007313;28;20053;-73
2024/01/17 05:21:06;;;;;;;5.43;3.93;;;0.90;99.90;;;;;;5007022;28;20045;-73
2024/01/17 05:23:31;;;;;;;3.60;2.67;;;0.90;99.90;;;;;;5024693;28;20404;-73
2024/01/17 05:25:57;;;;;;;4.13;3.73;;;0.80;99.90;;;;;;5006963;28;20083;-73
2024/01/17 05:28:23;;;;;;;8.30;5.47;;;0.80;99.90;;;;;;5007695;28;20142;-73
2024/01/17 05:30:48;;;;;;;8.07;4.73;;;0.80;99.90;;;;;;5025715;28;20045;-73
2024/01/17 05:33:14;;;;;;;5.77;4.63;;;0.80;99.90;;;;;;5006911;28;20049;-73
2024/01/17 05:35:40;;;;;;;6.63;6.03;;;0.80;99.90;;;;;;5024403;28;20480;-73
2024/01/17 05:38:06;;;;;;;4.47;4.17;;;0.80;99.90;;;;;;5005972;28;20045;-73
2024/01/17 05:40:32;;;;;;;4.90;4.30;;;0.80;99.90;;;;;;5006749;28;20518;-73
2024/01/17 05:42:57;;;;;;;7.30;4.67;;;0.80;99.90;;;;;;5006910;28;20053;-73
2024/01/17 05:45:23;;;;;;;14.03;4.43;;;0.70;99.90;;;;;;5006326;28;20515;-73
2024/01/17 05:47:49;;;;;;;8.13;4.30;;;0.70;99.90;;;;;;5007405;28;20041;-73
2024/01/17 05:50:14;;;;;;;4.10;3.70;;;0.70;99.90;;;;;;5006553;28;20040;-73
2024/01/17 05:52:45;;;;;;;13.90;5.97;;;0.70;99.90;;;;;;5007257;28;20507;-73
2024/01/17 05:55:12;;;;;;;4.97;4.03;;;0.70;99.90;;;;;;5006223;28;20171;-73
2024/01/17 05:57:38;;;;;;;4.83;4.43;;;0.60;99.90;;;;;;5024715;28;20045;-73
2024/01/17 06:00:09;;;;;;;6.03;3.73;;;0.70;99.90;;;;;;5000585;28;20056;-73
2024/01/17 06:02:36;;;;;;;4.30;3.90;;;0.60;99.90;;;;;;4987560;28;20204;-73
2024/01/17 06:05:03;;;;;;;8.63;4.47;;;0.60;99.90;;;;;;4986885;28;20050;-73
2024/01/17 06:07:29;;;;;;;10.17;4.33;;;0.60;99.90;;;;;;5004512;28;20436;-73
2024/01/17 06:09:54;;;;;;;4.40;4.10;;;0.60;99.90;;;;;;4985912;28;20060;-74
2024/01/17 06:12:20;;;;;;;3.40;3.17;;;0.60;99.90;;;;;;4998745;28;20046;-74
2024/01/17 06:14:48;;;;;;;3.03;2.87;;;0.70;99.90;;;;;;5007022;28;20045;-73
2024/01/17 06:17:13;;;;;;;8.80;6.23;;;0.70;99.90;;;;;;5023402;28;20041;-73
2024/01/17 06:19:40;;;;;;;4.97;4.53;;;0.70;99.90;;;;;;4997788;28;20874;-73
2024/01/17 06:22:06;;;;;;;3.10;2.63;;;0.70;99.90;;;;;;5005866;28;20049;-73
2024/01/17 06:24:31;;;;;;;4.33;4.00;;;0.70;99.90;;;;;;5022725;28;20079;-73
2024/01/17 06:26:57;;;;;;;4.07;3.77;;;0.70;99.90;;;;;;4987056;28;20038;-73
2024/01/17 06:29:22;;;;;;;6.50;5.90;;;0.70;99.90;;;;;;5002530;28;20049;-73
2024/01/17 06:31:48;;;;;;;4.50;4.10;;;0.70;99.90;;;;;;5023928;28;20160;-73
2024/01/17 06:34:13;;;;;;;5.47;5.17;;;0.70;99.90;;;;;;5005906;28;20033;-73
2024/01/17 06:36:39;;;;;;;7.53;4.23;;;0.70;99.90;;;;;;5006742;28;20057;-73
2024/01/17 06:39:05;;;;;;;6.90;6.20;;;0.70;99.90;;;;;;5022482;28;20045;-73
2024/01/17 06:41:31;;;;;;;5.00;4.53;;;0.70;99.90;;;;;;5005473;28;20037;-73
2024/01/17 06:43:56;;;;;;;10.50;5.70;;;0.70;99.90;;;;;;5005049;28;20667;-73
2024/01/17 06:46:22;;;;;;;5.43;4.93;;;0.70;99.90;;;;;;5000260;28;20049;-73
2024/01/17 06:48:47;;;;;;;7.33;4.17;;;0.70;99.90;;;;;;5023159;28;20080;-74
2024/01/17 06:51:13;;;;;;;3.30;2.93;;;0.70;99.90;;;;;;5000335;28;20033;-73
2024/01/17 06:53:38;;;;;;;4.07;3.77;;;0.70;99.90;;;;;;5018290;28;20476;-73
2024/01/17 06:56:05;;;;;;;5.93;5.33;;;0.70;99.90;;;;;;5002677;28;20092;-73
2024/01/17 06:58:30;;;;;;;6.50;5.90;;;0.70;99.90;;;;;;5006023;28;20041;-73
2024/01/17 07:00:56;;;;;;;5.10;4.70;;;0.70;99.90;;;;;;5000703;28;20107;-73
2024/01/17 07:03:22;;;;;;;5.33;4.80;;;0.70;99.90;;;;;;5016664;28;20045;-74
2024/01/17 07:05:47;;;;;;;4.47;4.07;;;0.60;99.90;;;;;;5000633;28;20112;-74
2024/01/17 07:08:13;;;;;;;5.13;4.60;;;0.70;99.90;;;;;;5017134;28;20045;-73
2024/01/17 07:10:39;;;;;;;3.53;3.33;;;0.70;99.90;;;;;;5004107;28;20053;-73
2024/01/17 07:13:04;;;;;;;13.23;7.07;;;0.60;99.90;;;;;;5022828;28;20132;-74
2024/01/17 07:15:31;;;;;;;4.27;3.97;;;0.60;99.90;;;;;;5002216;28;20061;-74
2024/01/17 07:17:57;;;;;;;5.23;3.90;;;0.60;99.90;;;;;;5015244;28;20042;-74
2024/01/17 07:20:22;;;;;;;3.97;3.67;;;0.60;99.90;;;;;;5002370;28;20103;-75
2024/01/17 07:22:48;;;;;;;6.27;5.60;;;0.60;99.90;;;;;;5021233;28;20130;-75
2024/01/17 07:25:13;;;;;;;6.17;5.57;;;0.50;99.90;;;;;;5021453;28;20051;-75
2024/01/17 07:27:40;;;;;;;6.07;5.27;;;0.50;99.90;;;;;;5003828;28;20065;-75
2024/01/17 07:30:07;;;;;;;5.27;4.53;;;0.50;99.90;;;;;;5004758;28;20049;-75
2024/01/17 07:32:35;;;;;;;4.13;3.30;;;0.50;99.90;;;;;;5005451;28;20459;-75
2024/01/17 07:35:01;;;;;;;5.80;5.07;;;0.40;99.90;;;;;;5004599;28;20045;-75
2024/01/17 07:37:27;;;;;;;5.33;4.17;;;0.40;99.90;;;;;;5003423;28;20473;-75
2024/01/17 07:39:52;;;;;;;7.57;6.47;;;0.40;99.90;;;;;;5020359;28;20037;-75
2024/01/17 07:42:18;;;;;;;7.53;4.80;;;0.30;99.90;;;;;;5021624;28;20620;-75
2024/01/17 07:44:47;;;;;;;6.57;6.17;;;0.30;99.90;;;;;;5003309;28;20045;-75
2024/01/17 07:47:13;;;;;;;10.07;6.07;;;0.30;99.90;;;;;;5003302;28;20392;-81
2024/01/17 07:49:39;;;;;;;6.00;5.43;;;0.40;99.90;;;;;;5020120;28;20491;-74
2024/01/17 07:52:05;;;;;;;5.00;4.30;;;0.40;99.90;;;;;;5019245;28;20069;-76
2024/01/17 07:54:32;;;;;;;4.30;3.57;;;0.40;99.90;;;;;;5002717;28;20526;-76
2024/01/17 07:56:58;;;;;;;8.37;3.73;;;0.40;99.90;;;;;;5001095;28;20420;-75
2024/01/17 07:59:24;;;;;;;5.33;4.97;;;0.40;99.90;;;;;;5003904;28;20402;-76
2024/01/17 08:01:49;;;;;;;11.17;4.10;;;0.40;99.90;;;;;;4987307;28;20140;-76
2024/01/17 08:04:18;;;;;;;4.37;4.17;;;0.40;99.90;;;;;;4999774;28;20046;-75
2024/01/17 08:06:44;;;;;;;3.97;3.70;;;0.40;99.90;;;;;;4988431;28;20056;-76
2024/01/17 08:09:24;;;;;;;4.07;3.50;;;0.40;99.90;;;;;;4983896;28;20428;-77
2024/01/17 08:11:54;;;;;;;5.37;4.87;;;0.40;99.90;;;;;;5019612;28;20059;-76
2024/01/17 08:14:20;;;;;;;5.80;5.07;;;0.40;99.90;;;;;;4991151;28;20064;-76
2024/01/17 08:16:47;;;;;;;4.27;3.93;;;0.50;99.90;;;;;;5020869;28;20447;-76
2024/01/17 08:19:14;;;;;;;4.97;4.53;;;0.40;99.90;;;;;;5007940;28;20061;-76
2024/01/17 08:21:42;;;;;;;6.90;4.27;;;0.40;99.90;;;;;;5003127;28;20041;-76
2024/01/17 08:24:08;;;;;;;5.30;4.57;;;0.40;99.90;;;;;;4977147;28;20054;-76
2024/01/17 08:26:34;;;;;;;6.70;5.33;;;0.40;99.90;;;;;;4988142;28;20056;-75
2024/01/17 08:29:00;;;;;;;6.93;4.00;;;0.40;99.90;;;;;;4990932;28;20049;-76
2024/01/17 08:31:26;;;;;;;6.60;3.17;;;0.40;99.90;;;;;;4983059;28;20045;-76
2024/01/17 08:33:52;;;;;;;4.23;3.90;;;0.40;99.90;;;;;;4983711;28;20302;-75
2024/01/17 08:36:18;;;;;;;12.60;4.53;;;0.40;99.90;;;;;;4987105;28;20041;-76
2024/01/17 08:38:43;;;;;;;7.73;5.67;;;0.40;99.90;;;;;;5006325;28;20460;-74
2024/01/17 08:41:10;;;;;;;3.50;2.80;;;0.40;99.90;;;;;;4982092;28;20570;-75
2024/01/17 08:43:36;;;;;;;5.80;5.40;;;0.50;99.90;;;;;;5019736;28;20132;-75
2024/01/17 08:46:02;;;;;;;3.60;3.40;;;0.50;99.90;;;;;;5018648;28;20120;-77
2024/01/17 08:48:29;;;;;;;9.40;5.27;;;0.50;99.90;;;;;;4984331;28;20042;-74
2024/01/17 08:50:55;;;;;;;4.80;4.47;;;0.50;99.90;;;;;;4977554;28;20041;-73
2024/01/17 08:53:20;;;;;;;4.93;3.23;;;0.60;99.90;;;;;;4969768;28;20149;-74
2024/01/17 08:55:47;;;;;;;5.77;5.23;;;0.50;99.90;;;;;;4966822;28;20456;-74
2024/01/17 08:58:12;;;;;;;6.83;4.27;;;0.60;99.90;;;;;;5000579;28;20527;-75
2024/01/17 09:00:38;;;;;;;15.33;7.60;;;0.60;99.90;;;;;;5011148;28;20049;-74
2024/01/17 09:03:04;;;;;;;9.47;5.03;;;0.60;99.90;;;;;;5001484;28;20045;-79
2024/01/17 09:05:30;;;;;;;4.27;3.97;;;0.60;99.90;;;;;;5019510;28;20037;-77
2024/01/17 09:07:56;;;;;;;5.10;4.50;;;0.60;99.90;;;;;;4991939;28;20528;-77
2024/01/17 09:10:22;;;;;;;3.20;3.00;;;0.70;99.90;;;;;;4991584;28;20056;-76
2024/01/17 09:12:49;;;;;;;6.00;5.53;;;0.70;99.90;;;;;;5002932;28;20038;-78
2024/01/17 09:15:14;;;;;;;5.83;5.43;;;0.70;99.90;;;;;;5002352;28;20044;-77
2024/01/17 09:17:40;;;;;;;5.43;4.93;;;0.70;99.90;;;;;;4981571;28;20038;-77
2024/01/17 09:20:06;;;;;;;5.43;4.07;;;0.70;99.90;;;;;;4994508;28;20049;-77
2024/01/17 09:22:33;;;;;;;4.80;4.07;;;0.70;99.90;;;;;;5004923;28;20622;-76
2024/01/17 09:25:01;;;;;;;2.83;2.63;;;0.70;99.90;;;;;;4989654;28;20049;-77
2024/01/17 09:27:29;;;;;;;5.90;4.97;;;0.70;99.90;;;;;;5005887;28;20411;-77
2024/01/17 09:29:56;;;;;;;5.00;4.60;;;0.70;99.90;;;;;;5005763;28;20087;-77
2024/01/17 09:32:22;;;;;;;2.90;2.70;;;0.80;99.90;;;;;;5005766;28;20129;-76
2024/01/17 09:34:48;;;;;;;4.57;4.27;;;0.80;99.90;;;;;;5006653;28;20033;-77
2024/01/17 09:37:17;;;;;;;5.40;4.93;;;0.80;99.90;;;;;;5004652;28;20052;-76
2024/01/17 09:39:47;;;;;;;11.33;5.03;;;0.80;99.90;;;;;;5005707;28;20061;-77
2024/01/17 09:42:19;;;;;;;2.80;2.53;;;0.90;99.90;;;;;;5005289;28;20187;-77
2024/01/17 09:44:45;;;;;;;3.38;2.85;;;0.90;99.90;;;;;;5007005;28;20084;-77
2024/01/17 09:47:15;;;;;;;4.77;3.27;;;0.90;99.90;;;;;;5022757;28;20115;-76
2024/01/17 09:49:41;;;;;;;10.17;4.03;;;0.90;99.90;;;;;;4998881;28;20042;-76
2024/01/17 09:52:06;;;;;;;3.70;3.40;;;0.90;99.90;;;;;;5022402;28;20124;-77
2024/01/17 09:54:36;;;;;;;5.07;4.70;;;0.90;99.90;;;;;;4998812;28;20042;-76
2024/01/17 09:57:08;;;;;;;6.97;3.90;;;0.90;99.90;;;;;;4985843;28;20049;-76
2024/01/17 09:59:43;;;;;;;4.07;3.72;;;0.90;99.90;;;;;;4971117;28;20033;-76
2024/01/17 10:02:09;;;;;;;5.93;5.30;;;1.00;99.90;;;;;;5021878;28;20081;-76
2024/01/17 10:04:35;;;;;;;4.47;3.00;;;1.00;99.90;;;;;;5023255;28;20029;-76
2024/01/17 10:07:01;;;;;;;5.07;3.90;;;1.00;99.90;;;;;;5000873;28;20073;-76
2024/01/17 10:09:27;;;;;;;3.47;2.50;;;1.00;99.90;;;;;;5000120;28;20054;-76
2024/01/17 10:11:53;;;;;;;5.40;3.63;;;1.00;99.90;;;;;;4985621;28;20378;-76
2024/01/17 10:14:21;;;;;;;5.93;5.43;;;1.10;99.90;;;;;;4986236;28;20053;-76
2024/01/17 10:16:48;;;;;;;3.97;3.60;;;1.00;99.90;;;;;;5001537;28;20042;-75
2024/01/17 10:19:15;;;;;;;12.97;6.87;;;1.00;99.90;;;;;;4985194;28;20413;-76
2024/01/17 10:21:41;;;;;;;3.30;3.03;;;1.00;99.90;;;;;;5002127;28;20085;-76
2024/01/17 10:24:06;;;;;;;5.57;5.07;;;1.10;99.90;;;;;;5001641;28;20076;-75
2024/01/17 10:26:32;;;;;;;2.67;2.33;;;1.00;99.90;;;;;;5002715;28;20516;-75
2024/01/17 10:28:58;;;;;;;3.43;3.23;;;1.10;99.90;;;;;;5002910;28;20572;-76
2024/01/17 10:31:24;;;;;;;4.43;2.80;;;1.10;99.90;;;;;;5001582;28;20128;-76
2024/01/17 10:33:53;;;;;;;8.43;3.63;;;1.10;99.90;;;;;;5000606;28;20042;-77
2024/01/17 10:36:19;;;;;;;3.33;3.13;;;1.10;99.90;;;;;;5002053;28;20034;-76
2024/01/17 10:38:49;;;;;;;5.67;4.10;;;1.20;99.90;;;;;;5002623;28;20400;-76
2024/01/17 10:41:15;;;;;;;5.03;3.10;;;1.10;99.90;;;;;;5002535;28;20116;-75
2024/01/17 10:43:54;;;;;;;7.00;3.37;;;1.20;99.90;;;;;;5002610;28;20530;-76
2024/01/17 10:46:20;;;;;;;8.60;4.73;;;1.20;99.90;;;;;;5002110;28;20034;-76
2024/01/17 10:48:47;;;;;;;3.20;3.00;;;1.20;99.90;;;;;;5002314;28;20044;-77
2024/01/17 10:51:21;;;;;;;5.40;4.20;;;1.20;99.90;;;;;;4999929;28;20062;-77
2024/01/17 10:53:56;;;;;;;4.00;3.80;;;1.20;99.90;;;;;;4994236;28;20508;-75
2024/01/17 10:56:23;;;;;;;6.13;3.00;;;1.20;99.90;;;;;;5001614;28;20045;-75
2024/01/17 10:58:51;;;;;;;6.23;4.70;;;1.20;99.90;;;;;;5002088;28;20488;-75
2024/01/17 11:01:32;;;;;;;4.27;3.07;;;1.20;99.90;;;;;;5001253;28;20045;-75
2024/01/17 11:04:07;;;;;;;3.43;3.20;;;1.30;99.90;;;;;;4990195;28;20050;-75
2024/01/17 11:06:34;;;;;;;2.73;2.57;;;1.30;99.90;;;;;;5006795;28;20222;-76
2024/01/17 11:09:01;;;;;;;4.40;3.20;;;1.30;99.90;;;;;;5020395;28;20075;-75
2024/01/17 11:11:38;;;;;;;6.07;4.60;;;1.30;99.90;;;;;;5019884;28;20060;-76
2024/01/17 11:14:05;;;;;;;7.33;4.00;;;1.30;99.90;;;;;;5002030;28;20087;-76
2024/01/17 11:16:33;;;;;;;3.67;3.37;;;1.20;99.90;;;;;;5004339;28;20111;-76
2024/01/17 11:19:00;;;;;;;3.53;3.20;;;1.30;99.90;;;;;;4986907;28;20045;-76
2024/01/17 11:21:27;;;;;;;2.30;2.10;;;1.20;99.90;;;;;;5022089;28;20037;-76
2024/01/17 11:24:09;;;;;;;3.27;3.00;;;1.20;99.90;;;;;;5003042;28;20124;-76
2024/01/17 11:27:03;;;;;;;2.90;2.70;;;1.20;99.90;;;;;;4997961;28;20128;-76
2024/01/17 11:29:42;;;;;;;3.27;2.97;;;1.20;99.90;;;;;;4988670;28;20480;-76
2024/01/17 11:32:22;;;;;;;7.10;3.37;;;1.30;99.90;;;;;;5003048;28;20200;-76
2024/01/17 11:34:49;;;;;;;4.77;4.27;;;1.20;99.90;;;;;;4999822;28;20037;-76
2024/01/17 11:37:33;;;;;;;3.43;3.13;;;1.20;99.90;;;;;;4993434;28;20045;-75
2024/01/17 11:40:00;;;;;;;2.70;2.60;;;1.20;99.90;;;;;;4988382;28;20046;-76
2024/01/17 11:42:26;;;;;;;4.60;4.30;;;1.20;99.90;;;;;;4990533;28;20043;-75
2024/01/17 11:44:52;;;;;;;7.73;4.57;;;1.20;99.90;;;;;;5021407;28;20045;-76
2024/01/17 11:47:20;;;;;;;4.33;4.03;;;1.20;99.90;;;;;;5002294;28;20037;-76
2024/01/17 11:49:46;;;;;;;4.47;3.23;;;1.20;99.90;;;;;;5010390;28;20052;-76
2024/01/17 11:52:34;;;;;;;5.77;5.13;;;1.20;99.90;;;;;;4998584;28;20328;-75
2024/01/17 11:55:00;;;;;;;4.27;3.43;;;1.10;99.90;;;;;;5005158;28;20077;-76
2024/01/17 11:57:28;;;;;;;3.30;2.93;;;1.10;99.90;;;;;;5021284;28;20124;-76
2024/01/17 12:00:02;;;;;;;3.13;2.93;;;1.10;99.90;;;;;;5019094;28;20752;-76
2024/01/17 12:02:36;;;;;;;4.93;4.53;;;1.10;99.90;;;;;;4987059;28;20506;-73
2024/01/17 12:05:11;;;;;;;3.67;3.47;;;1.10;99.90;;;;;;5019764;28;20259;-75
2024/01/17 12:07:42;;;;;;;3.70;3.50;;;1.10;99.90;;;;;;4999223;28;20057;-74
2024/01/17 12:10:09;;;;;;;10.70;4.40;;;1.20;99.90;;;;;;5019562;28;20446;-74
2024/01/17 12:12:45;;;;;;;3.23;3.00;;;1.20;99.90;;;;;;5004050;28;20136;-75
2024/01/17 12:15:12;;;;;;;4.20;3.57;;;1.20;99.90;;;;;;5021579;28;20038;-75
2024/01/17 12:17:39;;;;;;;8.50;6.00;;;1.20;99.90;;;;;;5018066;28;20095;-74
2024/01/17 12:20:07;;;;;;;10.87;4.00;;;1.20;99.90;;;;;;5008065;28;20504;-76
2024/01/17 12:22:36;;;;;;;4.10;3.90;;;1.20;99.90;;;;;;4996158;28;20030;-75
2024/01/17 12:25:02;;;;;;;3.43;2.37;;;1.20;99.90;;;;;;4983384;28;20125;-75
2024/01/17 12:27:31;;;;;;;7.30;5.50;;;1.30;99.90;;;;;;4996911;28;20579;-75
2024/01/17 12:30:05;;;;;;;5.50;4.53;;;1.30;99.90;;;;;;5003300;28;20109;-76
2024/01/17 12:32:30;;;;;;;4.10;3.80;;;1.30;99.90;;;;;;4986582;28;20468;-76
2024/01/17 12:34:56;;;;;;;4.53;4.20;;;1.30;99.90;;;;;;5002679;28;20122;-75
2024/01/17 12:37:22;;;;;;;3.87;3.20;;;1.30;99.90;;;;;;5017518;28;20563;-76
2024/01/17 12:39:48;;;;;;;9.30;3.03;;;1.30;99.90;;;;;;5003187;28;20046;-75
2024/01/17 12:42:16;;;;;;;4.53;3.10;;;1.30;99.90;;;;;;5019605;28;20073;-76
2024/01/17 12:44:43;;;;;;;3.23;3.00;;;1.30;99.90;;;;;;4996292;28;20125;-77
2024/01/17 12:47:09;;;;;;;4.80;3.60;;;1.30;99.90;;;;;;5006747;28;20045;-77
2024/01/17 12:49:35;;;;;;;2.57;2.37;;;1.30;99.90;;;;;;5024739;28;20068;-73
2024/01/17 12:52:01;;;;;;;5.30;3.37;;;1.30;99.90;;;;;;5005559;28;20045;-73
2024/01/17 12:54:26;;;;;;;6.60;4.10;;;1.30;99.90;;;;;;5016091;28;20064;-74